sensor_id;sensor_type;location;lat;lon;timestamp;pressure;altitude;pressure_sealevel;temperature;humidity
76460;BME280;65299;46.084;18.762;2024-02-16T00:01:32;101365.03;;;6.50;74.98
76460;BME280;65299;46.084;18.762;2024-02-16T00:04:32;101366.06;;;6.49;74.81
76460;BME280;65299;46.084;18.762;2024-02-16T00:07:33;101360.91;;;6.67;74.37
76460;BME280;65299;46.084;18.762;2024-02-16T00:10:34;101349.09;;;6.70;74.30
76460;BME280;65299;46.084;18.762;2024-02-16T00:13:34;101345.84;;;6.75;73.80
76460;BME280;65299;46.084;18.762;2024-02-16T00:16:35;101343.63;;;6.72;74.24
76460;BME280;65299;46.084;18.762;2024-02-16T00:19:36;101350.44;;;6.86;73.87
76460;BME280;65299;46.084;18.762;2024-02-16T00:22:36;101348.47;;;6.75;73.74
76460;BME280;65299;46.084;18.762;2024-02-16T00:25:36;101352.94;;;6.74;74.04
76460;BME280;65299;46.084;18.762;2024-02-16T00:28:38;101354.63;;;6.62;74.42
76460;BME280;65299;46.084;18.762;2024-02-16T00:31:38;101351.38;;;6.66;74.41
76460;BME280;65299;46.084;18.762;2024-02-16T00:34:39;101348.41;;;6.50;74.64
76460;BME280;65299;46.084;18.762;2024-02-16T00:37:41;101350.28;;;6.43;75.06
76460;BME280;65299;46.084;18.762;2024-02-16T00:40:41;101344.16;;;6.49;74.60
76460;BME280;65299;46.084;18.762;2024-02-16T00:43:43;101344.59;;;6.39;74.75
76460;BME280;65299;46.084;18.762;2024-02-16T00:46:45;101343.72;;;6.52;74.31
76460;BME280;65299;46.084;18.762;2024-02-16T00:49:45;101346.66;;;6.31;74.45
76460;BME280;65299;46.084;18.762;2024-02-16T00:52:45;101342.75;;;6.40;74.20
76460;BME280;65299;46.084;18.762;2024-02-16T00:55:46;101340.38;;;6.25;74.63
76460;BME280;65299;46.084;18.762;2024-02-16T00:58:47;101345.50;;;6.20;74.50
76460;BME280;65299;46.084;18.762;2024-02-16T01:01:47;101339.84;;;6.04;75.06
76460;BME280;65299;46.084;18.762;2024-02-16T01:04:48;101338.66;;;5.93;75.16
76460;BME280;65299;46.084;18.762;2024-02-16T01:07:50;101335.84;;;5.88;75.20
76460;BME280;65299;46.084;18.762;2024-02-16T01:10:50;101333.59;;;5.92;75.00
76460;BME280;65299;46.084;18.762;2024-02-16T01:13:52;101332.38;;;5.81;75.35
76460;BME280;65299;46.084;18.762;2024-02-16T01:16:52;101331.59;;;5.61;75.89
76460;BME280;65299;46.084;18.762;2024-02-16T01:19:53;101327.34;;;5.66;75.71
76460;BME280;65299;46.084;18.762;2024-02-16T01:22:53;101333.59;;;5.78;75.09
76460;BME280;65299;46.084;18.762;2024-02-16T01:25:53;101324.91;;;5.65;75.12
76460;BME280;65299;46.084;18.762;2024-02-16T01:28:54;101330.59;;;5.62;75.81
76460;BME280;65299;46.084;18.762;2024-02-16T01:31:54;101328.75;;;5.62;75.07
76460;BME280;65299;46.084;18.762;2024-02-16T01:34:55;101327.16;;;5.48;75.70
76460;BME280;65299;46.084;18.762;2024-02-16T01:37:55;101336.28;;;5.33;76.02
76460;BME280;65299;46.084;18.762;2024-02-16T01:40:55;101336.28;;;5.26;76.11
76460;BME280;65299;46.084;18.762;2024-02-16T01:43:56;101334.25;;;5.28;75.34
76460;BME280;65299;46.084;18.762;2024-02-16T01:46:56;101339.13;;;5.25;75.74
76460;BME280;65299;46.084;18.762;2024-02-16T01:49:57;101329.00;;;5.09;75.81
76460;BME280;65299;46.084;18.762;2024-02-16T01:52:58;101324.53;;;5.02;76.17
76460;BME280;65299;46.084;18.762;2024-02-16T01:55:59;101327.97;;;5.16;75.69
76460;BME280;65299;46.084;18.762;2024-02-16T01:58:59;101321.50;;;5.12;75.79
76460;BME280;65299;46.084;18.762;2024-02-16T02:02:00;101322.91;;;5.08;75.66
76460;BME280;65299;46.084;18.762;2024-02-16T02:05:00;101320.09;;;4.96;76.15
76460;BME280;65299;46.084;18.762;2024-02-16T02:08:09;101319.28;;;5.02;75.97
76460;BME280;65299;46.084;18.762;2024-02-16T02:11:10;101322.91;;;5.01;75.96
76460;BME280;65299;46.084;18.762;2024-02-16T02:14:10;101318.25;;;5.10;75.43
76460;BME280;65299;46.084;18.762;2024-02-16T02:17:11;101314.81;;;5.10;75.34
76460;BME280;65299;46.084;18.762;2024-02-16T02:20:12;101300.84;;;5.09;75.21
76460;BME280;65299;46.084;18.762;2024-02-16T02:23:12;101305.28;;;4.95;75.35
76460;BME280;65299;46.084;18.762;2024-02-16T02:26:16;101306.28;;;4.75;75.96
76460;BME280;65299;46.084;18.762;2024-02-16T02:29:19;101308.09;;;4.81;76.05
76460;BME280;65299;46.084;18.762;2024-02-16T02:32:20;101306.28;;;4.62;76.40
76460;BME280;65299;46.084;18.762;2024-02-16T02:35:20;101303.81;;;4.60;76.87
76460;BME280;65299;46.084;18.762;2024-02-16T02:38:21;101304.47;;;4.75;76.34
76460;BME280;65299;46.084;18.762;2024-02-16T02:41:21;101297.81;;;4.99;75.32
76460;BME280;65299;46.084;18.762;2024-02-16T02:44:22;101298.63;;;4.86;75.65
76460;BME280;65299;46.084;18.762;2024-02-16T02:47:22;101294.97;;;4.81;75.69
76460;BME280;65299;46.084;18.762;2024-02-16T02:50:22;101292.94;;;4.70;75.91
76460;BME280;65299;46.084;18.762;2024-02-16T02:53:24;101292.91;;;4.63;76.21
76460;BME280;65299;46.084;18.762;2024-02-16T02:56:24;101288.88;;;4.67;76.27
76460;BME280;65299;46.084;18.762;2024-02-16T02:59:25;101292.09;;;4.63;76.05
76460;BME280;65299;46.084;18.762;2024-02-16T03:02:25;101293.94;;;4.69;76.02
76460;BME280;65299;46.084;18.762;2024-02-16T03:05:27;101294.78;;;4.82;75.62
76460;BME280;65299;46.084;18.762;2024-02-16T03:08:27;101298.22;;;4.89;75.61
76460;BME280;65299;46.084;18.762;2024-02-16T03:11:27;101297.00;;;4.85;75.44
76460;BME280;65299;46.084;18.762;2024-02-16T03:14:28;101296.56;;;4.69;76.15
76460;BME280;65299;46.084;18.762;2024-02-16T03:17:28;101300.44;;;4.79;75.55
76460;BME280;65299;46.084;18.762;2024-02-16T03:20:28;101297.78;;;4.79;75.75
76460;BME280;65299;46.084;18.762;2024-02-16T03:23:30;101301.66;;;4.83;75.45
76460;BME280;65299;46.084;18.762;2024-02-16T03:26:31;101294.13;;;4.67;75.78
76460;BME280;65299;46.084;18.762;2024-02-16T03:29:32;101293.56;;;4.78;75.67
76460;BME280;65299;46.084;18.762;2024-02-16T03:32:33;101299.78;;;4.71;75.74
76460;BME280;65299;46.084;18.762;2024-02-16T03:35:34;101301.84;;;4.75;75.49
76460;BME280;65299;46.084;18.762;2024-02-16T03:38:34;101302.88;;;4.74;75.49
76460;BME280;65299;46.084;18.762;2024-02-16T03:41:35;101316.00;;;4.81;75.38
76460;BME280;65299;46.084;18.762;2024-02-16T03:44:35;101311.34;;;4.89;75.16
76460;BME280;65299;46.084;18.762;2024-02-16T03:47:35;101315.00;;;4.88;75.19
76460;BME280;65299;46.084;18.762;2024-02-16T03:50:36;101313.19;;;4.95;74.76
76460;BME280;65299;46.084;18.762;2024-02-16T03:53:36;101306.31;;;4.94;75.02
76460;BME280;65299;46.084;18.762;2024-02-16T03:56:37;101317.63;;;4.95;75.22
76460;BME280;65299;46.084;18.762;2024-02-16T03:59:37;101320.06;;;5.03;74.66
76460;BME280;65299;46.084;18.762;2024-02-16T04:02:39;101326.16;;;5.10;74.61
76460;BME280;65299;46.084;18.762;2024-02-16T04:05:39;101325.31;;;5.03;75.10
76460;BME280;65299;46.084;18.762;2024-02-16T04:08:40;101321.31;;;5.20;74.77
76460;BME280;65299;46.084;18.762;2024-02-16T04:11:40;101319.28;;;5.16;74.80
76460;BME280;65299;46.084;18.762;2024-02-16T04:14:41;101317.84;;;5.00;74.86
76460;BME280;65299;46.084;18.762;2024-02-16T04:17:42;101328.34;;;4.93;75.36
76460;BME280;65299;46.084;18.762;2024-02-16T04:20:42;101324.13;;;4.86;75.72
76460;BME280;65299;46.084;18.762;2024-02-16T04:23:43;101324.69;;;4.81;75.98
76460;BME280;65299;46.084;18.762;2024-02-16T04:26:43;101334.41;;;4.87;75.71
76460;BME280;65299;46.084;18.762;2024-02-16T04:29:44;101331.00;;;4.93;75.99
76460;BME280;65299;46.084;18.762;2024-02-16T04:32:44;101338.28;;;4.91;75.53
76460;BME280;65299;46.084;18.762;2024-02-16T04:35:45;101329.78;;;4.89;75.16
76460;BME280;65299;46.084;18.762;2024-02-16T04:38:48;101338.22;;;4.65;75.63
76460;BME280;65299;46.084;18.762;2024-02-16T04:41:48;101328.69;;;4.64;75.79
76460;BME280;65299;46.084;18.762;2024-02-16T04:44:49;101328.88;;;4.56;75.54
76460;BME280;65299;46.084;18.762;2024-02-16T04:47:49;101335.31;;;4.41;75.58
76460;BME280;65299;46.084;18.762;2024-02-16T04:50:50;101336.50;;;4.38;75.55
76460;BME280;65299;46.084;18.762;2024-02-16T04:53:50;101331.66;;;4.35;75.67
76460;BME280;65299;46.084;18.762;2024-02-16T04:56:51;101331.25;;;4.32;75.50
76460;BME280;65299;46.084;18.762;2024-02-16T04:59:51;101341.91;;;4.23;75.56
76460;BME280;65299;46.084;18.762;2024-02-16T05:02:52;101344.84;;;3.73;77.46
76460;BME280;65299;46.084;18.762;2024-02-16T05:05:55;101343.00;;;3.67;77.29
76460;BME280;65299;46.084;18.762;2024-02-16T05:08:58;101353.19;;;3.83;77.02
76460;BME280;65299;46.084;18.762;2024-02-16T05:11:59;101345.41;;;3.62;77.27
76460;BME280;65299;46.084;18.762;2024-02-16T05:14:59;101350.34;;;3.51;77.95
76460;BME280;65299;46.084;18.762;2024-02-16T05:18:00;101355.09;;;3.62;77.81
76460;BME280;65299;46.084;18.762;2024-02-16T05:21:00;101357.63;;;3.83;76.90
76460;BME280;65299;46.084;18.762;2024-02-16T05:24:01;101350.97;;;3.53;77.10
76460;BME280;65299;46.084;18.762;2024-02-16T05:27:02;101345.28;;;3.49;77.31
76460;BME280;65299;46.084;18.762;2024-02-16T05:30:04;101344.53;;;3.27;78.59
76460;BME280;65299;46.084;18.762;2024-02-16T05:33:07;101363.25;;;3.46;77.84
76460;BME280;65299;46.084;18.762;2024-02-16T05:36:08;101355.59;;;3.51;77.57
76460;BME280;65299;46.084;18.762;2024-02-16T05:39:09;101360.41;;;3.47;77.46
76460;BME280;65299;46.084;18.762;2024-02-16T05:42:26;101353.16;;;3.49;77.35
76460;BME280;65299;46.084;18.762;2024-02-16T05:45:27;101364.84;;;3.47;77.88
76460;BME280;65299;46.084;18.762;2024-02-16T05:48:27;101366.00;;;3.65;76.81
76460;BME280;65299;46.084;18.762;2024-02-16T05:51:40;101363.31;;;3.59;76.68
76460;BME280;65299;46.084;18.762;2024-02-16T05:54:41;101360.84;;;3.78;75.99
76460;BME280;65299;46.084;18.762;2024-02-16T05:57:41;101370.66;;;3.42;76.84
76460;BME280;65299;46.084;18.762;2024-02-16T06:00:41;101377.84;;;3.55;77.01
76460;BME280;65299;46.084;18.762;2024-02-16T06:03:42;101376.31;;;3.67;76.39
76460;BME280;65299;46.084;18.762;2024-02-16T06:06:44;101381.81;;;3.72;76.12
76460;BME280;65299;46.084;18.762;2024-02-16T06:09:44;101379.38;;;3.70;76.11
76460;BME280;65299;46.084;18.762;2024-02-16T06:12:45;101386.66;;;3.75;75.95
76460;BME280;65299;46.084;18.762;2024-02-16T06:15:45;101384.28;;;3.80;75.43
76460;BME280;65299;46.084;18.762;2024-02-16T06:18:47;101381.66;;;3.80;75.91
76460;BME280;65299;46.084;18.762;2024-02-16T06:21:49;101385.06;;;3.74;75.99
76460;BME280;65299;46.084;18.762;2024-02-16T06:24:49;101392.59;;;3.56;76.47
76460;BME280;65299;46.084;18.762;2024-02-16T06:27:50;101392.72;;;3.75;76.20
76460;BME280;65299;46.084;18.762;2024-02-16T06:30:50;101392.31;;;3.72;76.33
76460;BME280;65299;46.084;18.762;2024-02-16T06:33:51;101389.53;;;3.52;76.61
76460;BME280;65299;46.084;18.762;2024-02-16T06:36:51;101399.38;;;3.71;76.63
76460;BME280;65299;46.084;18.762;2024-02-16T06:39:51;101387.91;;;3.79;76.07
76460;BME280;65299;46.084;18.762;2024-02-16T06:42:52;101398.59;;;4.05;75.42
76460;BME280;65299;46.084;18.762;2024-02-16T06:45:52;101390.53;;;4.06;75.49
76460;BME280;65299;46.084;18.762;2024-02-16T06:48:55;101401.09;;;4.19;75.09
76460;BME280;65299;46.084;18.762;2024-02-16T06:51:58;101400.38;;;4.39;74.79
76460;BME280;65299;46.084;18.762;2024-02-16T06:54:59;101395.28;;;4.71;73.65
76460;BME280;65299;46.084;18.762;2024-02-16T06:57:59;101397.94;;;4.84;73.75
76460;BME280;65299;46.084;18.762;2024-02-16T07:01:00;101400.63;;;5.11;73.00
76460;BME280;65299;46.084;18.762;2024-02-16T07:04:03;101407.97;;;5.41;72.10
76460;BME280;65299;46.084;18.762;2024-02-16T07:07:04;101407.56;;;5.77;70.79
76460;BME280;65299;46.084;18.762;2024-02-16T07:10:07;101411.63;;;5.99;69.86
76460;BME280;65299;46.084;18.762;2024-02-16T07:13:08;101405.06;;;6.34;68.44
76460;BME280;65299;46.084;18.762;2024-02-16T07:16:08;101414.16;;;6.38;67.70
76460;BME280;65299;46.084;18.762;2024-02-16T07:19:09;101409.66;;;6.52;67.25
76460;BME280;65299;46.084;18.762;2024-02-16T07:22:09;101408.81;;;6.58;66.72
76460;BME280;65299;46.084;18.762;2024-02-16T07:25:12;101408.38;;;6.67;65.76
76460;BME280;65299;46.084;18.762;2024-02-16T07:28:13;101405.88;;;6.86;65.30
76460;BME280;65299;46.084;18.762;2024-02-16T07:31:13;101408.09;;;6.82;65.86
76460;BME280;65299;46.084;18.762;2024-02-16T07:34:16;101411.13;;;6.92;65.82
76460;BME280;65299;46.084;18.762;2024-02-16T07:37:17;101406.34;;;7.07;65.82
76460;BME280;65299;46.084;18.762;2024-02-16T07:40:17;101411.75;;;7.19;65.00
76460;BME280;65299;46.084;18.762;2024-02-16T07:43:18;101413.53;;;7.25;65.24
76460;BME280;65299;46.084;18.762;2024-02-16T07:46:18;101408.63;;;7.35;64.96
76460;BME280;65299;46.084;18.762;2024-02-16T07:49:19;101420.44;;;7.57;64.15
76460;BME280;65299;46.084;18.762;2024-02-16T07:52:19;101423.44;;;7.61;64.11
76460;BME280;65299;46.084;18.762;2024-02-16T07:55:20;101418.44;;;7.77;63.18
76460;BME280;65299;46.084;18.762;2024-02-16T07:58:24;101417.66;;;7.45;63.82
76460;BME280;65299;46.084;18.762;2024-02-16T08:01:24;101416.78;;;7.76;63.68
76460;BME280;65299;46.084;18.762;2024-02-16T08:04:25;101417.78;;;7.82;64.04
76460;BME280;65299;46.084;18.762;2024-02-16T08:07:25;101423.88;;;8.00;62.90
76460;BME280;65299;46.084;18.762;2024-02-16T08:10:26;101423.56;;;8.15;62.95
76460;BME280;65299;46.084;18.762;2024-02-16T08:13:26;101426.13;;;8.21;63.26
76460;BME280;65299;46.084;18.762;2024-02-16T08:16:27;101425.66;;;8.31;63.06
76460;BME280;65299;46.084;18.762;2024-02-16T08:19:32;101425.00;;;8.35;62.68
76460;BME280;65299;46.084;18.762;2024-02-16T08:22:34;101425.88;;;8.29;63.19
76460;BME280;65299;46.084;18.762;2024-02-16T08:25:35;101423.75;;;8.38;63.07
76460;BME280;65299;46.084;18.762;2024-02-16T08:28:35;101428.69;;;8.53;62.61
76460;BME280;65299;46.084;18.762;2024-02-16T08:31:36;101423.69;;;8.92;62.05
76460;BME280;65299;46.084;18.762;2024-02-16T08:34:36;101425.75;;;8.90;61.93
76460;BME280;65299;46.084;18.762;2024-02-16T08:37:37;101426.69;;;8.66;62.82
76460;BME280;65299;46.084;18.762;2024-02-16T08:40:38;101419.75;;;8.83;63.10
76460;BME280;65299;46.084;18.762;2024-02-16T08:43:38;101414.63;;;9.00;62.62
76460;BME280;65299;46.084;18.762;2024-02-16T08:46:40;101423.97;;;9.32;61.60
76460;BME280;65299;46.084;18.762;2024-02-16T08:49:41;101420.75;;;9.42;61.19
76460;BME280;65299;46.084;18.762;2024-02-16T08:52:42;101422.53;;;9.71;60.29
76460;BME280;65299;46.084;18.762;2024-02-16T08:55:44;101424.94;;;9.72;60.20
76460;BME280;65299;46.084;18.762;2024-02-16T08:58:45;101426.34;;;10.10;58.78
76460;BME280;65299;46.084;18.762;2024-02-16T09:01:48;101420.13;;;10.27;58.25
76460;BME280;65299;46.084;18.762;2024-02-16T09:04:48;101417.44;;;10.39;56.18
76460;BME280;65299;46.084;18.762;2024-02-16T09:07:49;101420.22;;;10.44;56.07
76460;BME280;65299;46.084;18.762;2024-02-16T09:10:49;101419.13;;;10.68;54.87
76460;BME280;65299;46.084;18.762;2024-02-16T09:13:50;101413.81;;;10.68;55.50
76460;BME280;65299;46.084;18.762;2024-02-16T09:16:51;101416.84;;;10.60;55.69
76460;BME280;65299;46.084;18.762;2024-02-16T09:19:51;101421.91;;;10.90;55.14
76460;BME280;65299;46.084;18.762;2024-02-16T09:22:52;101421.59;;;10.86;54.60
76460;BME280;65299;46.084;18.762;2024-02-16T09:25:52;101418.97;;;11.03;54.57
76460;BME280;65299;46.084;18.762;2024-02-16T09:28:53;101415.69;;;11.12;54.59
76460;BME280;65299;46.084;18.762;2024-02-16T09:31:53;101424.34;;;11.19;54.59
76460;BME280;65299;46.084;18.762;2024-02-16T09:34:54;101420.16;;;11.23;54.68
76460;BME280;65299;46.084;18.762;2024-02-16T09:37:56;101425.25;;;11.41;53.75
76460;BME280;65299;46.084;18.762;2024-02-16T09:40:56;101425.34;;;11.30;53.77
76460;BME280;65299;46.084;18.762;2024-02-16T09:43:57;101422.66;;;11.46;53.79
76460;BME280;65299;46.084;18.762;2024-02-16T09:46:59;101426.31;;;11.57;53.72
76460;BME280;65299;46.084;18.762;2024-02-16T09:50:01;101421.59;;;11.76;53.12
76460;BME280;65299;46.084;18.762;2024-02-16T09:53:03;101420.00;;;11.75;53.92
76460;BME280;65299;46.084;18.762;2024-02-16T09:56:06;101423.41;;;12.08;53.18
76460;BME280;65299;46.084;18.762;2024-02-16T09:59:09;101421.13;;;11.79;53.84
76460;BME280;65299;46.084;18.762;2024-02-16T10:02:09;101412.63;;;11.82;54.15
76460;BME280;65299;46.084;18.762;2024-02-16T10:05:19;101415.00;;;12.16;53.27
76460;BME280;65299;46.084;18.762;2024-02-16T10:08:19;101407.28;;;12.15;53.29
76460;BME280;65299;46.084;18.762;2024-02-16T10:11:22;101407.09;;;12.21;52.52
76460;BME280;65299;46.084;18.762;2024-02-16T10:14:24;101400.41;;;12.40;52.79
76460;BME280;65299;46.084;18.762;2024-02-16T10:17:25;101401.34;;;12.29;52.45
76460;BME280;65299;46.084;18.762;2024-02-16T10:20:26;101396.38;;;12.38;52.54
76460;BME280;65299;46.084;18.762;2024-02-16T10:23:27;101389.38;;;12.32;51.84
76460;BME280;65299;46.084;18.762;2024-02-16T10:26:28;101388.25;;;12.28;51.10
76460;BME280;65299;46.084;18.762;2024-02-16T10:29:29;101388.34;;;12.55;50.99
76460;BME280;65299;46.084;18.762;2024-02-16T10:32:30;101382.63;;;12.68;51.66
76460;BME280;65299;46.084;18.762;2024-02-16T10:35:33;101378.41;;;12.72;50.92
76460;BME280;65299;46.084;18.762;2024-02-16T10:38:34;101377.59;;;12.71;50.43
76460;BME280;65299;46.084;18.762;2024-02-16T10:41:39;101367.72;;;12.93;50.41
76460;BME280;65299;46.084;18.762;2024-02-16T10:44:40;101371.00;;;13.00;49.00
76460;BME280;65299;46.084;18.762;2024-02-16T10:47:42;101373.91;;;12.99;49.33
76460;BME280;65299;46.084;18.762;2024-02-16T10:50:43;101367.09;;;13.08;48.65
76460;BME280;65299;46.084;18.762;2024-02-16T10:53:44;101369.78;;;13.40;48.40
76460;BME280;65299;46.084;18.762;2024-02-16T10:56:45;101357.78;;;13.42;48.97
76460;BME280;65299;46.084;18.762;2024-02-16T10:59:46;101348.94;;;13.37;47.67
76460;BME280;65299;46.084;18.762;2024-02-16T11:03:05;101352.13;;;13.34;47.41
76460;BME280;65299;46.084;18.762;2024-02-16T11:06:16;101353.53;;;13.46;47.17
76460;BME280;65299;46.084;18.762;2024-02-16T11:09:43;101348.28;;;13.56;47.59
76460;BME280;65299;46.084;18.762;2024-02-16T11:12:44;101346.91;;;13.49;46.66
76460;BME280;65299;46.084;18.762;2024-02-16T11:15:56;101344.00;;;13.18;47.61
76460;BME280;65299;46.084;18.762;2024-02-16T11:18:57;101344.56;;;13.57;47.53
76460;BME280;65299;46.084;18.762;2024-02-16T11:21:58;101341.97;;;13.72;47.40
76460;BME280;65299;46.084;18.762;2024-02-16T11:24:59;101341.28;;;13.50;45.78
76460;BME280;65299;46.084;18.762;2024-02-16T11:28:03;101340.44;;;13.81;45.96
76460;BME280;65299;46.084;18.762;2024-02-16T11:31:04;101338.69;;;13.55;45.50
76460;BME280;65299;46.084;18.762;2024-02-16T11:34:05;101323.56;;;13.71;46.71
76460;BME280;65299;46.084;18.762;2024-02-16T11:37:05;101323.03;;;13.69;45.88
76460;BME280;65299;46.084;18.762;2024-02-16T11:40:06;101319.09;;;13.81;45.70
76460;BME280;65299;46.084;18.762;2024-02-16T11:43:08;101312.72;;;13.87;44.49
76460;BME280;65299;46.084;18.762;2024-02-16T11:46:13;101315.47;;;14.02;44.96
76460;BME280;65299;46.084;18.762;2024-02-16T11:49:13;101317.84;;;13.99;45.02
76460;BME280;65299;46.084;18.762;2024-02-16T11:52:18;101310.50;;;14.26;44.74
76460;BME280;65299;46.084;18.762;2024-02-16T11:55:21;101304.69;;;14.39;44.50
76460;BME280;65299;46.084;18.762;2024-02-16T11:58:23;101306.56;;;13.87;43.31
76460;BME280;65299;46.084;18.762;2024-02-16T12:01:23;101300.38;;;13.71;42.19
76460;BME280;65299;46.084;18.762;2024-02-16T12:04:29;101304.53;;;14.04;42.87
76460;BME280;65299;46.084;18.762;2024-02-16T12:07:29;101300.06;;;14.25;43.81
76460;BME280;65299;46.084;18.762;2024-02-16T12:10:30;101295.34;;;14.52;43.46
76460;BME280;65299;46.084;18.762;2024-02-16T12:13:30;101298.16;;;14.15;42.19
76460;BME280;65299;46.084;18.762;2024-02-16T12:16:31;101295.53;;;14.20;42.11
76460;BME280;65299;46.084;18.762;2024-02-16T12:19:31;101291.06;;;14.41;42.64
76460;BME280;65299;46.084;18.762;2024-02-16T12:22:32;101290.06;;;14.62;42.62
76460;BME280;65299;46.084;18.762;2024-02-16T12:25:32;101285.50;;;14.47;40.83
76460;BME280;65299;46.084;18.762;2024-02-16T12:28:32;101283.88;;;14.46;41.17
76460;BME280;65299;46.084;18.762;2024-02-16T12:31:33;101282.31;;;14.75;41.75
76460;BME280;65299;46.084;18.762;2024-02-16T12:34:37;101274.81;;;14.57;41.89
76460;BME280;65299;46.084;18.762;2024-02-16T12:37:38;101270.25;;;14.48;41.41
76460;BME280;65299;46.084;18.762;2024-02-16T12:40:38;101274.28;;;14.55;41.99
76460;BME280;65299;46.084;18.762;2024-02-16T12:43:39;101277.50;;;14.62;41.48
76460;BME280;65299;46.084;18.762;2024-02-16T12:46:40;101264.16;;;14.98;41.20
76460;BME280;65299;46.084;18.762;2024-02-16T12:49:43;101267.00;;;14.31;41.98
76460;BME280;65299;46.084;18.762;2024-02-16T12:52:44;101264.66;;;14.74;41.48
76460;BME280;65299;46.084;18.762;2024-02-16T12:55:46;101257.72;;;14.53;41.07
76460;BME280;65299;46.084;18.762;2024-02-16T12:58:47;101259.88;;;14.91;41.20
76460;BME280;65299;46.084;18.762;2024-02-16T13:01:48;101261.72;;;14.61;41.51
76460;BME280;65299;46.084;18.762;2024-02-16T13:04:51;101258.25;;;14.50;41.32
76460;BME280;65299;46.084;18.762;2024-02-16T13:07:53;101258.53;;;14.64;41.81
76460;BME280;65299;46.084;18.762;2024-02-16T13:10:54;101257.72;;;14.63;41.40
76460;BME280;65299;46.084;18.762;2024-02-16T13:13:54;101254.50;;;14.46;41.27
76460;BME280;65299;46.084;18.762;2024-02-16T13:16:55;101256.34;;;14.36;40.78
76460;BME280;65299;46.084;18.762;2024-02-16T13:19:56;101251.28;;;14.44;41.17
76460;BME280;65299;46.084;18.762;2024-02-16T13:23:06;101250.78;;;14.62;41.64
76460;BME280;65299;46.084;18.762;2024-02-16T13:26:07;101242.25;;;14.65;40.96
76460;BME280;65299;46.084;18.762;2024-02-16T13:29:07;101250.75;;;14.42;40.22
76460;BME280;65299;46.084;18.762;2024-02-16T13:32:07;101243.56;;;14.73;39.49
76460;BME280;65299;46.084;18.762;2024-02-16T13:35:09;101246.50;;;14.76;39.92
76460;BME280;65299;46.084;18.762;2024-02-16T13:38:09;101243.28;;;14.84;39.13
76460;BME280;65299;46.084;18.762;2024-02-16T13:41:10;101237.16;;;14.94;38.72
76460;BME280;65299;46.084;18.762;2024-02-16T13:44:10;101239.03;;;14.88;38.70
76460;BME280;65299;46.084;18.762;2024-02-16T13:47:11;101233.16;;;14.91;39.17
76460;BME280;65299;46.084;18.762;2024-02-16T13:50:11;101229.13;;;14.69;37.25
76460;BME280;65299;46.084;18.762;2024-02-16T13:53:12;101220.59;;;14.57;38.62
76460;BME280;65299;46.084;18.762;2024-02-16T13:56:13;101228.06;;;14.75;38.03
76460;BME280;65299;46.084;18.762;2024-02-16T13:59:14;101227.25;;;14.54;37.41
76460;BME280;65299;46.084;18.762;2024-02-16T14:02:14;101224.31;;;14.81;37.94
76460;BME280;65299;46.084;18.762;2024-02-16T14:05:15;101222.97;;;14.98;38.56
76460;BME280;65299;46.084;18.762;2024-02-16T14:08:17;101222.44;;;14.86;37.17
76460;BME280;65299;46.084;18.762;2024-02-16T14:11:18;101215.50;;;15.01;37.43
76460;BME280;65299;46.084;18.762;2024-02-16T14:14:18;101210.16;;;14.95;37.55
76460;BME280;65299;46.084;18.762;2024-02-16T14:17:18;101211.78;;;14.81;37.56
76460;BME280;65299;46.084;18.762;2024-02-16T14:20:19;101216.03;;;14.87;38.20
76460;BME280;65299;46.084;18.762;2024-02-16T14:34:48;101217.09;;;14.96;37.61
76460;BME280;65299;46.084;18.762;2024-02-16T14:37:49;101218.41;;;15.09;37.28
76460;BME280;65299;46.084;18.762;2024-02-16T14:40:50;101217.13;;;14.81;37.19
76460;BME280;65299;46.084;18.762;2024-02-16T14:43:50;101215.78;;;14.79;37.40
76460;BME280;65299;46.084;18.762;2024-02-16T14:46:50;101219.78;;;14.86;37.15
76460;BME280;65299;46.084;18.762;2024-02-16T14:49:51;101226.75;;;14.87;37.13
76460;BME280;65299;46.084;18.762;2024-02-16T14:52:51;101222.19;;;14.73;37.51
76460;BME280;65299;46.084;18.762;2024-02-16T14:55:51;101221.63;;;14.56;37.83
76460;BME280;65299;46.084;18.762;2024-02-16T14:58:52;101224.34;;;14.66;36.95
76460;BME280;65299;46.084;18.762;2024-02-16T15:01:52;101220.31;;;14.73;36.95
76460;BME280;65299;46.084;18.762;2024-02-16T15:04:53;101225.94;;;14.77;36.70
76460;BME280;65299;46.084;18.762;2024-02-16T15:07:54;101224.88;;;14.78;36.40
76460;BME280;65299;46.084;18.762;2024-02-16T15:10:54;101227.81;;;14.71;36.74
76460;BME280;65299;46.084;18.762;2024-02-16T15:13:54;101220.88;;;14.65;37.30
76460;BME280;65299;46.084;18.762;2024-02-16T15:16:55;101221.41;;;14.57;37.61
76460;BME280;65299;46.084;18.762;2024-02-16T15:19:55;101222.97;;;14.43;37.58
76460;BME280;65299;46.084;18.762;2024-02-16T15:22:56;101222.94;;;14.28;37.55
76460;BME280;65299;46.084;18.762;2024-02-16T15:25:57;101222.09;;;14.23;37.95
76460;BME280;65299;46.084;18.762;2024-02-16T15:28:57;101220.22;;;14.18;37.74
76460;BME280;65299;46.084;18.762;2024-02-16T15:31:58;101221.50;;;13.95;38.50
76460;BME280;65299;46.084;18.762;2024-02-16T15:34:59;101214.22;;;13.81;38.65
76460;BME280;65299;46.084;18.762;2024-02-16T15:38:00;101211.56;;;13.81;38.42
76460;BME280;65299;46.084;18.762;2024-02-16T15:41:00;101222.22;;;13.81;38.79
76460;BME280;65299;46.084;18.762;2024-02-16T15:44:01;101226.72;;;13.70;39.27
76460;BME280;65299;46.084;18.762;2024-02-16T15:47:02;101217.34;;;13.58;39.61
76460;BME280;65299;46.084;18.762;2024-02-16T15:50:03;101227.16;;;13.47;39.72
76460;BME280;65299;46.084;18.762;2024-02-16T15:53:06;101219.81;;;13.22;40.70